createdAt,value
2022-12-04T00:01:34.803Z,100682.97
2022-12-04T00:06:39.063Z,100687.81
2022-12-04T00:11:48.739Z,100673.41
2022-12-04T00:16:55.915Z,100667.72
2022-12-04T00:22:03.146Z,100679.78
2022-12-04T00:27:15.631Z,100683.66
2022-12-04T00:32:19.274Z,100664.97
2022-12-04T00:37:27.862Z,100648.44
2022-12-04T00:42:46.227Z,100642.47
2022-12-04T00:47:51.716Z,100661.25
2022-12-04T00:52:57.336Z,100652.81
2022-12-04T00:58:04.925Z,100649.06
2022-12-04T01:03:12.301Z,100650.34
2022-12-04T01:08:22.658Z,100656.06
2022-12-04T01:13:49.874Z,100663.94
2022-12-04T01:18:53.522Z,100669.59
2022-12-04T01:24:07.234Z,100662.50
2022-12-04T01:29:11.882Z,100669.59
2022-12-04T01:34:15.706Z,100650.28
2022-12-04T01:39:21.015Z,100660.91
2022-12-04T01:44:30.248Z,100661.19
2022-12-04T01:49:56.229Z,100681.06
2022-12-04T01:55:03.768Z,100667.97
2022-12-04T02:05:25.321Z,100664.44
2022-12-04T02:11:13.235Z,100667.44
2022-12-04T02:17:09.282Z,100680.47
2022-12-04T02:22:38.864Z,100691.03
2022-12-04T02:28:19.679Z,100695.88
2022-12-04T02:33:46.798Z,100674.66
2022-12-04T02:39:15.874Z,100672.44
2022-12-04T02:44:31.683Z,100665.06
2022-12-04T02:49:54.453Z,100660.72
2022-12-04T02:55:30.433Z,100655.78
2022-12-04T03:00:41.398Z,100662.56
2022-12-04T03:05:58.142Z,100661.19
2022-12-04T03:11:06.010Z,100662.28
2022-12-04T03:16:19.868Z,100654.13
2022-12-04T03:21:36.900Z,100644.31
2022-12-04T03:26:49.715Z,100655.75
2022-12-04T03:32:21.712Z,100652.47
2022-12-04T03:37:48.737Z,100667.91
2022-12-04T03:43:32.349Z,100683.91
2022-12-04T03:49:15.520Z,100663.81
2022-12-04T03:54:43.799Z,100667.63
2022-12-04T04:00:09.136Z,100668.44
2022-12-04T04:05:20.032Z,100663.81
2022-12-04T04:10:29.988Z,100660.84
2022-12-04T04:16:05.511Z,100660.03
2022-12-04T04:21:31.597Z,100672.53
2022-12-04T04:26:42.696Z,100648.63
2022-12-04T04:32:09.271Z,100657.88
2022-12-04T04:37:54.506Z,100657.31
2022-12-04T04:43:57.064Z,100665.97
2022-12-04T04:49:05.075Z,100679.50
2022-12-04T04:54:14.947Z,100678.69
2022-12-04T04:59:22.911Z,100691.72
2022-12-04T05:04:35.933Z,100697.41
2022-12-04T05:13:24.573Z,100693.03
2022-12-04T05:18:28.639Z,100692.78
2022-12-04T05:23:34.842Z,100698.78
2022-12-04T05:28:36.816Z,100705.56
2022-12-04T05:33:42.256Z,100700.69
2022-12-04T05:38:46.970Z,100705.06
2022-12-04T05:43:53.801Z,100721.88
2022-12-04T05:48:56.744Z,100722.34
2022-12-04T06:21:59.880Z,100704.34
2022-12-04T06:32:39.560Z,100718.97
2022-12-04T06:37:50.342Z,100728.69
2022-12-04T06:42:58.829Z,100741.72
2022-12-04T06:48:04.355Z,100728.38
2022-12-04T06:53:19.546Z,100723.72
2022-12-04T06:58:26.500Z,100726.13
2022-12-04T07:03:36.978Z,100726.88
2022-12-04T07:08:56.385Z,100732.81
2022-12-04T07:14:16.369Z,100734.13
2022-12-04T07:19:29.191Z,100726.25
2022-12-04T07:24:40.549Z,100737.69
2022-12-04T07:29:58.651Z,100739.38
2022-12-04T07:40:29.121Z,100742.47
2022-12-04T07:45:45.581Z,100751.44
2022-12-04T07:51:14.625Z,100754.72
2022-12-04T07:56:38.100Z,100762.94
2022-12-04T08:07:17.768Z,100796.53
2022-12-04T08:12:44.695Z,100777.91
2022-12-04T08:18:00.611Z,100781.34
2022-12-04T08:23:13.846Z,100798.69
2022-12-04T08:28:28.173Z,100803.81
2022-12-04T08:33:36.577Z,100815.00
2022-12-04T08:38:44.236Z,100798.19
2022-12-04T08:43:58.923Z,100817.78
2022-12-04T08:49:17.976Z,100827.56
2022-12-04T08:54:25.295Z,100812.38
2022-12-04T08:59:40.219Z,100822.19
2022-12-04T09:04:48.184Z,100821.69
2022-12-04T09:10:01.065Z,100828.75
2022-12-04T09:15:11.954Z,100816.28
2022-12-04T09:20:44.452Z,100838.97
2022-12-04T09:31:33.737Z,100853.22
2022-12-04T09:42:33.670Z,100874.16
2022-12-04T09:47:57.706Z,100876.88
2022-12-04T09:53:24.631Z,100878.81
2022-12-04T09:59:07.534Z,100874.03
2022-12-04T10:04:39.661Z,100862.16
2022-12-04T10:10:22.309Z,100864.16
2022-12-04T10:16:08.926Z,100863.00
2022-12-04T10:21:37.228Z,100868.16
2022-12-04T10:26:46.278Z,100878.06
2022-12-04T10:31:58.301Z,100876.16
2022-12-04T10:37:21.820Z,100860.63
2022-12-04T10:42:47.869Z,100855.69
2022-12-04T10:48:00.032Z,100846.41
2022-12-04T10:53:22.620Z,100839.03
2022-12-04T10:58:36.517Z,100849.66
2022-12-04T11:03:46.685Z,100862.16
2022-12-04T11:08:56.089Z,100862.66
2022-12-04T11:14:20.279Z,100869.41
2022-12-04T11:19:30.942Z,100866.38
2022-12-04T11:24:41.142Z,100869.94
2022-12-04T11:29:50.432Z,100868.84
2022-12-04T11:35:23.661Z,100855.50
2022-12-04T11:40:47.026Z,100867.22
2022-12-04T11:46:02.002Z,100856.56
2022-12-04T11:51:36.556Z,100859.28
2022-12-04T11:56:49.561Z,100862.56
2022-12-04T12:02:24.007Z,100855.22
2022-12-04T12:08:01.945Z,100865.84
2022-12-04T12:13:39.834Z,100853.84
2022-12-04T12:19:29.304Z,100851.16
2022-12-04T12:24:51.554Z,100859.97
2022-12-04T12:30:29.755Z,100853.47
2022-12-04T12:35:56.615Z,100844.06
2022-12-04T12:41:26.031Z,100863.38
2022-12-04T12:46:53.504Z,100862.56
2022-12-04T12:52:27.323Z,100867.38
2022-12-04T12:57:53.901Z,100858.38
2022-12-04T13:03:36.552Z,100856.50
2022-12-04T13:09:37.030Z,100859.16
2022-12-04T13:20:52.769Z,100862.47
2022-12-04T13:26:37.958Z,100854.88
2022-12-04T13:38:00.549Z,100883.03
2022-12-04T13:43:33.751Z,100874.56
2022-12-04T13:48:49.254Z,100862.53
2022-12-04T13:59:49.732Z,100878.38
2022-12-04T14:05:19.107Z,100863.38
2022-12-04T14:10:47.694Z,100870.19
2022-12-04T14:16:26.404Z,100882.19
2022-12-04T14:21:49.101Z,100882.78
2022-12-04T14:27:31.058Z,100877.56
2022-12-04T14:32:37.497Z,100879.72
2022-12-04T14:38:07.987Z,100889.03
2022-12-04T14:43:30.792Z,100893.66
2022-12-04T14:48:56.516Z,100900.47
2022-12-04T14:54:26.500Z,100907.06
2022-12-04T14:59:55.556Z,100907.34
2022-12-04T15:05:04.026Z,100913.63
2022-12-04T15:10:45.070Z,100919.41
2022-12-04T15:15:55.042Z,100921.56
2022-12-04T15:21:15.985Z,100930.31
2022-12-04T15:26:29.437Z,100945.06
2022-12-04T15:31:51.633Z,100940.41
2022-12-04T15:37:23.881Z,100947.78
2022-12-04T15:42:37.958Z,100948.88
2022-12-04T15:48:11.989Z,100953.78
2022-12-04T15:53:29.731Z,100957.59
2022-12-04T15:58:43.234Z,100979.13
2022-12-04T16:04:01.587Z,100972.53
2022-12-04T16:09:26.844Z,100991.00
2022-12-04T16:20:11.386Z,100995.41
2022-12-04T16:25:24.185Z,101006.78
2022-12-04T16:30:40.349Z,101016.50
2022-12-04T16:35:58.626Z,101019.41
2022-12-04T16:41:18.872Z,101031.06
2022-12-04T16:46:25.454Z,101025.22
2022-12-04T16:51:50.962Z,101036.88
2022-12-04T16:57:04.726Z,101043.84
2022-12-04T17:02:30.011Z,101045.50
2022-12-04T17:07:42.094Z,101049.72
2022-12-04T17:12:57.964Z,101046.00
2022-12-04T17:18:16.361Z,101054.53
2022-12-04T17:23:30.086Z,101058.97
2022-12-04T17:28:37.521Z,101062.91
2022-12-04T17:33:40.087Z,101085.84
2022-12-04T17:38:43.397Z,101095.91
2022-12-04T17:43:49.060Z,101097.06
2022-12-04T17:49:06.668Z,101102.63
2022-12-04T17:54:20.125Z,101106.84
2022-12-04T17:59:36.605Z,101110.28
2022-12-04T18:04:51.313Z,101113.19
2022-12-04T18:09:59.735Z,101124.53
2022-12-04T18:15:21.405Z,101139.59
2022-12-04T18:20:50.476Z,101147.50
2022-12-04T18:26:18.519Z,101143.44
2022-12-04T18:31:32.573Z,101145.59
2022-12-04T18:36:39.887Z,101147.75
2022-12-04T18:41:47.426Z,101169.56
2022-12-04T18:52:18.565Z,101170.13
2022-12-04T18:57:32.158Z,101181.00
2022-12-04T19:08:47.753Z,101185.63
2022-12-04T19:14:16.148Z,101194.31
2022-12-04T19:19:35.959Z,101194.91
2022-12-04T19:24:56.687Z,101203.63
2022-12-04T19:30:08.435Z,101215.19
2022-12-04T19:35:17.391Z,101227.06
2022-12-04T19:40:23.560Z,101230.78
2022-12-04T19:45:36.284Z,101249.66
2022-12-04T19:50:50.209Z,101260.88
2022-12-04T19:56:01.986Z,101270.09
2022-12-04T20:01:17.646Z,101271.75
2022-12-04T20:06:36.554Z,101288.59
2022-12-04T20:11:49.337Z,101309.13
2022-12-04T20:17:11.344Z,101301.00
2022-12-04T20:22:37.088Z,101303.66
2022-12-04T20:27:49.996Z,101314.69
2022-12-04T20:33:32.906Z,101322.16
2022-12-04T20:38:41.102Z,101320.28
2022-12-04T20:44:12.159Z,101324.78
2022-12-04T20:49:30.850Z,101330.81
2022-12-04T20:54:47.663Z,101333.41
2022-12-04T21:00:15.597Z,101342.03
2022-12-04T21:05:30.375Z,101336.47
2022-12-04T21:10:42.094Z,101338.00
2022-12-04T21:16:03.725Z,101349.44
2022-12-04T21:21:09.617Z,101357.94
2022-12-04T21:26:35.575Z,101349.69
2022-12-04T21:31:49.595Z,101361.13
2022-12-04T21:37:18.623Z,101369.16
2022-12-04T21:42:33.438Z,101373.41
2022-12-04T21:47:38.658Z,101381.06
2022-12-04T21:52:56.807Z,101383.16
2022-12-04T21:58:16.656Z,101388.69
2022-12-04T22:03:28.835Z,101394.94
2022-12-04T22:08:55.018Z,101401.22
2022-12-04T22:14:10.916Z,101414.19
2022-12-04T22:19:19.068Z,101409.34
2022-12-04T22:24:24.012Z,101413.00
2022-12-04T22:29:49.749Z,101407.56
2022-12-04T22:35:05.213Z,101425.38
2022-12-04T22:40:28.855Z,101447.47
2022-12-04T22:45:34.581Z,101437.16
2022-12-04T22:50:44.028Z,101433.28
2022-12-04T23:01:24.041Z,101434.34
2022-12-04T23:06:39.643Z,101424.19
2022-12-04T23:11:46.087Z,101427.59
2022-12-04T23:16:51.697Z,101428.88
2022-12-04T23:22:07.424Z,101420.50
2022-12-04T23:27:17.774Z,101415.28
2022-12-04T23:32:41.679Z,101419.31
2022-12-04T23:37:51.077Z,101418.97
2022-12-04T23:42:56.522Z,101428.66
2022-12-04T23:48:03.065Z,101420.16
2022-12-04T23:53:12.909Z,101410.00
2022-12-04T23:58:31.672Z,101412.13
